sensor_id;sensor_type;location;lat;lon;timestamp;pressure;altitude;pressure_sealevel;temperature;humidity
18918;BME280;9591;52.742;13.650;2023-05-06T00:00:55;101317.22;;;13.99;68.68
18918;BME280;9591;52.742;13.650;2023-05-06T00:03:42;101321.03;;;13.92;68.87
18918;BME280;9591;52.742;13.650;2023-05-06T00:06:29;101311.56;;;13.85;70.68
18918;BME280;9591;52.742;13.650;2023-05-06T00:09:17;101307.97;;;14.09;71.77
18918;BME280;9591;52.742;13.650;2023-05-06T00:12:04;101311.25;;;13.93;73.38
18918;BME280;9591;52.742;13.650;2023-05-06T00:14:52;101314.03;;;13.90;77.12
18918;BME280;9591;52.742;13.650;2023-05-06T00:17:39;101305.13;;;13.67;79.96
18918;BME280;9591;52.742;13.650;2023-05-06T00:20:26;101314.56;;;13.51;81.25
18918;BME280;9591;52.742;13.650;2023-05-06T00:23:14;101316.63;;;13.43;80.76
18918;BME280;9591;52.742;13.650;2023-05-06T00:26:01;101305.06;;;13.18;82.51
18918;BME280;9591;52.742;13.650;2023-05-06T00:28:47;101315.63;;;13.21;83.98
18918;BME280;9591;52.742;13.650;2023-05-06T00:31:35;101280.72;;;12.77;86.79
18918;BME280;9591;52.742;13.650;2023-05-06T00:34:22;101306.38;;;12.78;86.45
18918;BME280;9591;52.742;13.650;2023-05-06T00:37:09;101306.69;;;12.69;89.14
18918;BME280;9591;52.742;13.650;2023-05-06T00:39:56;101303.59;;;12.55;93.35
18918;BME280;9591;52.742;13.650;2023-05-06T00:42:43;101304.94;;;12.68;91.00
18918;BME280;9591;52.742;13.650;2023-05-06T00:45:30;101294.94;;;12.19;97.87
18918;BME280;9591;52.742;13.650;2023-05-06T00:48:18;101298.16;;;12.30;99.44
18918;BME280;9591;52.742;13.650;2023-05-06T00:51:05;101284.19;;;12.23;99.17
18918;BME280;9591;52.742;13.650;2023-05-06T00:53:52;101285.59;;;12.35;97.58
18918;BME280;9591;52.742;13.650;2023-05-06T00:56:40;101288.00;;;12.14;97.87
18918;BME280;9591;52.742;13.650;2023-05-06T00:59:27;101280.75;;;12.20;98.22
18918;BME280;9591;52.742;13.650;2023-05-06T01:02:13;101287.81;;;11.91;99.76
18918;BME280;9591;52.742;13.650;2023-05-06T01:05:02;101288.34;;;11.71;100.00
18918;BME280;9591;52.742;13.650;2023-05-06T01:07:55;101284.06;;;11.98;100.00
18918;BME280;9591;52.742;13.650;2023-05-06T01:10:47;101277.00;;;11.66;100.00
18918;BME280;9591;52.742;13.650;2023-05-06T01:13:43;101272.03;;;11.54;100.00
18918;BME280;9591;52.742;13.650;2023-05-06T01:16:31;101267.72;;;11.50;100.00
18918;BME280;9591;52.742;13.650;2023-05-06T01:19:32;101266.56;;;11.28;100.00
18918;BME280;9591;52.742;13.650;2023-05-06T01:22:23;101258.22;;;11.41;100.00
18918;BME280;9591;52.742;13.650;2023-05-06T01:25:18;101261.72;;;11.11;100.00
18918;BME280;9591;52.742;13.650;2023-05-06T01:28:06;101266.22;;;11.07;100.00
18918;BME280;9591;52.742;13.650;2023-05-06T01:30:58;101252.94;;;11.09;100.00
18918;BME280;9591;52.742;13.650;2023-05-06T01:33:52;101255.41;;;10.81;100.00
18918;BME280;9591;52.742;13.650;2023-05-06T01:36:47;101252.19;;;11.04;100.00
18918;BME280;9591;52.742;13.650;2023-05-06T01:39:38;101254.66;;;10.76;100.00
18918;BME280;9591;52.742;13.650;2023-05-06T01:42:29;101253.22;;;10.98;100.00
18918;BME280;9591;52.742;13.650;2023-05-06T01:45:17;101258.59;;;10.95;100.00
18918;BME280;9591;52.742;13.650;2023-05-06T01:48:05;101255.97;;;10.94;100.00
18918;BME280;9591;52.742;13.650;2023-05-06T01:50:52;101255.22;;;10.89;100.00
18918;BME280;9591;52.742;13.650;2023-05-06T01:53:39;101256.63;;;11.03;100.00
18918;BME280;9591;52.742;13.650;2023-05-06T01:56:26;101255.19;;;10.90;100.00
18918;BME280;9591;52.742;13.650;2023-05-06T01:59:15;101249.72;;;10.96;100.00
18918;BME280;9591;52.742;13.650;2023-05-06T02:02:02;101262.53;;;10.79;100.00
18918;BME280;9591;52.742;13.650;2023-05-06T02:04:51;101254.06;;;10.65;100.00
18918;BME280;9591;52.742;13.650;2023-05-06T02:07:38;101243.38;;;10.68;100.00
18918;BME280;9591;52.742;13.650;2023-05-06T02:10:24;101245.75;;;10.78;100.00
18918;BME280;9591;52.742;13.650;2023-05-06T02:13:20;101251.72;;;10.88;100.00
18918;BME280;9591;52.742;13.650;2023-05-06T02:16:08;101252.69;;;10.84;100.00
18918;BME280;9591;52.742;13.650;2023-05-06T02:18:56;101248.25;;;10.84;100.00
18918;BME280;9591;52.742;13.650;2023-05-06T02:21:43;101239.91;;;10.66;100.00
18918;BME280;9591;52.742;13.650;2023-05-06T02:24:29;101234.59;;;10.66;100.00
18918;BME280;9591;52.742;13.650;2023-05-06T02:27:16;101234.25;;;10.44;100.00
18918;BME280;9591;52.742;13.650;2023-05-06T02:30:04;101234.13;;;10.48;100.00
18918;BME280;9591;52.742;13.650;2023-05-06T02:32:52;101237.84;;;10.41;100.00
18918;BME280;9591;52.742;13.650;2023-05-06T02:35:39;101235.19;;;10.41;100.00
18918;BME280;9591;52.742;13.650;2023-05-06T02:38:26;101245.16;;;10.32;100.00
18918;BME280;9591;52.742;13.650;2023-05-06T02:41:13;101241.31;;;10.43;100.00
18918;BME280;9591;52.742;13.650;2023-05-06T02:43:59;101243.94;;;10.45;100.00
18918;BME280;9591;52.742;13.650;2023-05-06T02:46:50;101253.47;;;10.13;100.00
18918;BME280;9591;52.742;13.650;2023-05-06T02:49:40;101247.09;;;10.24;100.00
18918;BME280;9591;52.742;13.650;2023-05-06T02:52:27;101249.72;;;10.25;100.00
18918;BME280;9591;52.742;13.650;2023-05-06T02:55:14;101241.19;;;10.11;100.00
18918;BME280;9591;52.742;13.650;2023-05-06T02:58:01;101226.25;;;10.07;100.00
18918;BME280;9591;52.742;13.650;2023-05-06T03:00:48;101224.78;;;9.94;100.00
18918;BME280;9591;52.742;13.650;2023-05-06T03:03:35;101216.25;;;9.81;100.00
18918;BME280;9591;52.742;13.650;2023-05-06T03:06:23;101214.34;;;9.88;100.00
18918;BME280;9591;52.742;13.650;2023-05-06T03:09:10;101215.19;;;9.90;100.00
18918;BME280;9591;52.742;13.650;2023-05-06T03:11:58;101198.72;;;9.75;100.00
18918;BME280;9591;52.742;13.650;2023-05-06T03:14:46;101232.03;;;9.85;100.00
18918;BME280;9591;52.742;13.650;2023-05-06T03:17:33;101224.63;;;10.01;100.00
18918;BME280;9591;52.742;13.650;2023-05-06T03:20:22;101227.94;;;9.69;100.00
18918;BME280;9591;52.742;13.650;2023-05-06T03:23:14;101235.28;;;9.55;100.00
18918;BME280;9591;52.742;13.650;2023-05-06T03:26:01;101232.59;;;9.58;100.00
18918;BME280;9591;52.742;13.650;2023-05-06T03:28:48;101233.69;;;9.90;100.00
18918;BME280;9591;52.742;13.650;2023-05-06T03:31:37;101226.59;;;9.92;100.00
18918;BME280;9591;52.742;13.650;2023-05-06T03:34:24;101241.28;;;9.65;100.00
18918;BME280;9591;52.742;13.650;2023-05-06T03:37:11;101236.91;;;9.62;100.00
18918;BME280;9591;52.742;13.650;2023-05-06T03:40:07;101232.69;;;9.53;100.00
18918;BME280;9591;52.742;13.650;2023-05-06T03:42:55;101236.00;;;9.63;100.00
18918;BME280;9591;52.742;13.650;2023-05-06T03:45:42;101219.31;;;9.61;100.00
18918;BME280;9591;52.742;13.650;2023-05-06T03:48:29;101223.13;;;9.48;100.00
18918;BME280;9591;52.742;13.650;2023-05-06T03:51:16;101214.16;;;9.53;100.00
18918;BME280;9591;52.742;13.650;2023-05-06T03:54:03;101215.22;;;9.46;100.00
18918;BME280;9591;52.742;13.650;2023-05-06T03:56:53;101212.50;;;9.51;100.00
18918;BME280;9591;52.742;13.650;2023-05-06T03:59:40;101208.09;;;9.50;100.00
18918;BME280;9591;52.742;13.650;2023-05-06T04:02:27;101211.91;;;9.35;100.00
18918;BME280;9591;52.742;13.650;2023-05-06T04:05:15;101201.94;;;9.49;100.00
18918;BME280;9591;52.742;13.650;2023-05-06T04:08:03;101192.38;;;9.44;100.00
18918;BME280;9591;52.742;13.650;2023-05-06T04:10:50;101201.78;;;9.12;100.00
18918;BME280;9591;52.742;13.650;2023-05-06T04:13:46;101205.72;;;9.36;100.00
18918;BME280;9591;52.742;13.650;2023-05-06T04:16:36;101204.59;;;9.49;100.00
18918;BME280;9591;52.742;13.650;2023-05-06T04:19:23;101207.84;;;9.61;100.00
18918;BME280;9591;52.742;13.650;2023-05-06T04:22:10;101206.97;;;9.60;100.00
18918;BME280;9591;52.742;13.650;2023-05-06T04:24:57;101209.03;;;9.88;100.00
18918;BME280;9591;52.742;13.650;2023-05-06T04:27:46;101214.13;;;9.55;100.00
18918;BME280;9591;52.742;13.650;2023-05-06T04:30:34;101222.31;;;9.86;100.00
18918;BME280;9591;52.742;13.650;2023-05-06T04:33:21;101226.97;;;9.73;100.00
18918;BME280;9591;52.742;13.650;2023-05-06T04:36:11;101225.81;;;9.86;100.00
18918;BME280;9591;52.742;13.650;2023-05-06T04:39:04;101225.91;;;9.82;100.00
18918;BME280;9591;52.742;13.650;2023-05-06T04:41:53;101217.78;;;9.91;100.00
18918;BME280;9591;52.742;13.650;2023-05-06T04:44:47;101221.44;;;9.85;100.00
18918;BME280;9591;52.742;13.650;2023-05-06T04:47:39;101221.25;;;9.95;100.00
18918;BME280;9591;52.742;13.650;2023-05-06T04:50:26;101222.44;;;10.22;100.00
18918;BME280;9591;52.742;13.650;2023-05-06T04:53:13;101226.75;;;10.26;100.00
18918;BME280;9591;52.742;13.650;2023-05-06T04:55:59;101235.34;;;10.35;100.00
18918;BME280;9591;52.742;13.650;2023-05-06T04:58:47;101236.41;;;10.28;100.00
18918;BME280;9591;52.742;13.650;2023-05-06T05:01:35;101238.81;;;10.39;100.00
18918;BME280;9591;52.742;13.650;2023-05-06T05:04:23;101237.09;;;10.36;100.00
18918;BME280;9591;52.742;13.650;2023-05-06T05:07:11;101243.13;;;10.41;100.00
18918;BME280;9591;52.742;13.650;2023-05-06T05:09:58;101238.03;;;10.34;100.00
18918;BME280;9591;52.742;13.650;2023-05-06T05:12:45;101246.59;;;10.43;100.00
18918;BME280;9591;52.742;13.650;2023-05-06T05:15:33;101247.28;;;10.14;100.00
18918;BME280;9591;52.742;13.650;2023-05-06T05:18:20;101256.22;;;10.09;100.00
18918;BME280;9591;52.742;13.650;2023-05-06T05:21:12;101254.13;;;10.25;100.00
18918;BME280;9591;52.742;13.650;2023-05-06T05:23:58;101254.75;;;10.36;100.00
18918;BME280;9591;52.742;13.650;2023-05-06T05:26:46;101265.69;;;10.19;100.00
18918;BME280;9591;52.742;13.650;2023-05-06T05:29:34;101270.38;;;10.46;100.00
18918;BME280;9591;52.742;13.650;2023-05-06T05:32:23;101266.25;;;10.35;100.00
18918;BME280;9591;52.742;13.650;2023-05-06T05:35:10;101270.09;;;10.22;100.00
18918;BME280;9591;52.742;13.650;2023-05-06T05:38:01;101275.78;;;10.02;100.00
18918;BME280;9591;52.742;13.650;2023-05-06T05:40:48;101270.34;;;10.08;100.00
18918;BME280;9591;52.742;13.650;2023-05-06T05:43:34;101272.03;;;10.12;100.00
18918;BME280;9591;52.742;13.650;2023-05-06T05:46:21;101273.47;;;10.28;100.00
18918;BME280;9591;52.742;13.650;2023-05-06T05:49:09;101272.69;;;10.23;100.00
18918;BME280;9591;52.742;13.650;2023-05-06T05:51:56;101281.59;;;10.19;100.00
18918;BME280;9591;52.742;13.650;2023-05-06T05:54:45;101273.59;;;10.22;100.00
18918;BME280;9591;52.742;13.650;2023-05-06T05:57:33;101281.66;;;10.16;100.00
18918;BME280;9591;52.742;13.650;2023-05-06T06:00:20;101283.66;;;10.45;100.00
18918;BME280;9591;52.742;13.650;2023-05-06T06:03:13;101285.09;;;10.21;100.00
18918;BME280;9591;52.742;13.650;2023-05-06T06:06:00;101286.50;;;9.96;100.00
18918;BME280;9591;52.742;13.650;2023-05-06T06:08:47;101291.88;;;9.91;100.00
18918;BME280;9591;52.742;13.650;2023-05-06T06:11:36;101291.41;;;10.14;100.00
18918;BME280;9591;52.742;13.650;2023-05-06T06:14:23;101296.84;;;10.06;100.00
18918;BME280;9591;52.742;13.650;2023-05-06T06:17:10;101285.47;;;10.03;100.00
18918;BME280;9591;52.742;13.650;2023-05-06T06:20:00;101289.88;;;10.02;100.00
18918;BME280;9591;52.742;13.650;2023-05-06T06:22:50;101285.44;;;10.04;100.00
18918;BME280;9591;52.742;13.650;2023-05-06T06:25:37;101287.38;;;10.38;100.00
18918;BME280;9591;52.742;13.650;2023-05-06T06:28:26;101294.50;;;9.93;100.00
18918;BME280;9591;52.742;13.650;2023-05-06T06:31:12;101294.97;;;10.11;100.00
18918;BME280;9591;52.742;13.650;2023-05-06T06:33:59;101287.72;;;10.23;100.00
18918;BME280;9591;52.742;13.650;2023-05-06T06:36:49;101286.16;;;10.11;100.00
18918;BME280;9591;52.742;13.650;2023-05-06T06:39:36;101282.59;;;10.13;100.00
18918;BME280;9591;52.742;13.650;2023-05-06T06:42:23;101294.38;;;9.99;100.00
18918;BME280;9591;52.742;13.650;2023-05-06T06:45:25;101293.47;;;10.00;100.00
18918;BME280;9591;52.742;13.650;2023-05-06T06:48:12;101295.66;;;10.23;100.00
18918;BME280;9591;52.742;13.650;2023-05-06T06:50:59;101293.09;;;10.16;100.00
18918;BME280;9591;52.742;13.650;2023-05-06T06:53:48;101301.34;;;10.03;100.00
18918;BME280;9591;52.742;13.650;2023-05-06T06:56:36;101288.09;;;10.03;100.00
18918;BME280;9591;52.742;13.650;2023-05-06T06:59:24;101309.94;;;10.14;100.00
18918;BME280;9591;52.742;13.650;2023-05-06T07:02:14;101308.59;;;10.36;100.00
18918;BME280;9591;52.742;13.650;2023-05-06T07:05:02;101295.59;;;10.26;100.00
18918;BME280;9591;52.742;13.650;2023-05-06T07:07:50;101308.63;;;9.92;100.00
18918;BME280;9591;52.742;13.650;2023-05-06T07:10:36;101307.88;;;10.28;100.00
18918;BME280;9591;52.742;13.650;2023-05-06T07:13:23;101306.66;;;10.43;100.00
18918;BME280;9591;52.742;13.650;2023-05-06T07:16:10;101294.31;;;10.42;100.00
18918;BME280;9591;52.742;13.650;2023-05-06T07:18:59;101297.94;;;10.39;100.00
18918;BME280;9591;52.742;13.650;2023-05-06T07:21:46;101299.44;;;10.49;100.00
18918;BME280;9591;52.742;13.650;2023-05-06T07:24:33;101294.47;;;10.36;100.00
18918;BME280;9591;52.742;13.650;2023-05-06T07:27:19;101301.66;;;9.88;100.00
18918;BME280;9591;52.742;13.650;2023-05-06T07:30:07;101287.25;;;10.42;100.00
18918;BME280;9591;52.742;13.650;2023-05-06T07:32:54;101295.16;;;10.44;100.00
18918;BME280;9591;52.742;13.650;2023-05-06T07:35:42;101288.00;;;10.47;100.00
18918;BME280;9591;52.742;13.650;2023-05-06T07:38:29;101297.97;;;10.75;100.00
18918;BME280;9591;52.742;13.650;2023-05-06T07:41:15;101298.72;;;10.80;100.00
18918;BME280;9591;52.742;13.650;2023-05-06T07:44:03;101293.09;;;10.94;100.00
18918;BME280;9591;52.742;13.650;2023-05-06T07:46:50;101299.38;;;10.52;100.00
18918;BME280;9591;52.742;13.650;2023-05-06T07:49:36;101306.84;;;10.35;100.00
18918;BME280;9591;52.742;13.650;2023-05-06T07:52:25;101303.59;;;10.23;100.00
18918;BME280;9591;52.742;13.650;2023-05-06T07:55:11;101308.78;;;10.66;100.00
18918;BME280;9591;52.742;13.650;2023-05-06T07:57:58;101313.44;;;10.55;100.00
18918;BME280;9591;52.742;13.650;2023-05-06T08:00:45;101313.72;;;10.42;100.00
18918;BME280;9591;52.742;13.650;2023-05-06T08:03:32;101315.47;;;10.43;100.00
18918;BME280;9591;52.742;13.650;2023-05-06T08:06:18;101304.41;;;10.63;100.00
18918;BME280;9591;52.742;13.650;2023-05-06T08:09:07;101319.19;;;10.73;100.00
18918;BME280;9591;52.742;13.650;2023-05-06T08:11:57;101318.59;;;10.61;100.00
18918;BME280;9591;52.742;13.650;2023-05-06T08:14:44;101315.91;;;10.62;100.00
18918;BME280;9591;52.742;13.650;2023-05-06T08:17:30;101316.03;;;10.58;100.00
18918;BME280;9591;52.742;13.650;2023-05-06T08:20:17;101320.38;;;10.60;100.00
18918;BME280;9591;52.742;13.650;2023-05-06T08:23:05;101323.78;;;10.65;100.00
18918;BME280;9591;52.742;13.650;2023-05-06T08:25:53;101315.72;;;10.71;100.00
18918;BME280;9591;52.742;13.650;2023-05-06T08:28:40;101320.28;;;10.65;100.00
18918;BME280;9591;52.742;13.650;2023-05-06T08:31:26;101317.75;;;10.59;100.00
18918;BME280;9591;52.742;13.650;2023-05-06T08:34:13;101327.97;;;10.75;100.00
18918;BME280;9591;52.742;13.650;2023-05-06T08:37:02;101334.16;;;10.76;100.00
18918;BME280;9591;52.742;13.650;2023-05-06T08:39:49;101331.72;;;10.67;100.00
18918;BME280;9591;52.742;13.650;2023-05-06T08:42:38;101328.34;;;10.59;100.00
18918;BME280;9591;52.742;13.650;2023-05-06T08:45:25;101337.25;;;10.56;100.00
18918;BME280;9591;52.742;13.650;2023-05-06T08:48:13;101336.16;;;10.65;100.00
18918;BME280;9591;52.742;13.650;2023-05-06T08:51:02;101323.41;;;10.43;100.00
18918;BME280;9591;52.742;13.650;2023-05-06T08:53:50;101317.69;;;10.62;100.00
18918;BME280;9591;52.742;13.650;2023-05-06T08:56:39;101325.47;;;10.69;100.00
18918;BME280;9591;52.742;13.650;2023-05-06T08:59:27;101325.97;;;10.85;100.00
18918;BME280;9591;52.742;13.650;2023-05-06T09:02:17;101342.31;;;11.04;100.00
18918;BME280;9591;52.742;13.650;2023-05-06T09:05:04;101329.09;;;11.02;100.00
18918;BME280;9591;52.742;13.650;2023-05-06T09:07:50;101342.13;;;11.11;100.00
18918;BME280;9591;52.742;13.650;2023-05-06T09:10:42;101343.16;;;11.06;100.00
18918;BME280;9591;52.742;13.650;2023-05-06T09:13:29;101347.19;;;11.21;100.00
18918;BME280;9591;52.742;13.650;2023-05-06T09:16:27;101348.56;;;11.01;100.00
18918;BME280;9591;52.742;13.650;2023-05-06T09:19:15;101349.72;;;10.90;100.00
18918;BME280;9591;52.742;13.650;2023-05-06T09:22:02;101352.09;;;11.02;100.00
18918;BME280;9591;52.742;13.650;2023-05-06T09:24:49;101359.84;;;11.09;100.00
18918;BME280;9591;52.742;13.650;2023-05-06T09:27:41;101348.47;;;11.04;100.00
18918;BME280;9591;52.742;13.650;2023-05-06T09:30:28;101362.44;;;11.12;100.00
18918;BME280;9591;52.742;13.650;2023-05-06T09:33:16;101364.81;;;11.23;100.00
18918;BME280;9591;52.742;13.650;2023-05-06T09:36:03;101357.09;;;10.77;100.00
18918;BME280;9591;52.742;13.650;2023-05-06T09:38:51;101368.81;;;11.04;100.00
18918;BME280;9591;52.742;13.650;2023-05-06T09:41:39;101361.31;;;11.21;100.00
18918;BME280;9591;52.742;13.650;2023-05-06T09:44:26;101371.31;;;11.44;100.00
18918;BME280;9591;52.742;13.650;2023-05-06T09:47:15;101374.81;;;11.46;100.00
18918;BME280;9591;52.742;13.650;2023-05-06T09:50:03;101375.00;;;11.38;100.00
18918;BME280;9591;52.742;13.650;2023-05-06T09:52:50;101376.00;;;11.68;100.00
18918;BME280;9591;52.742;13.650;2023-05-06T09:55:38;101385.16;;;11.57;100.00
18918;BME280;9591;52.742;13.650;2023-05-06T09:58:26;101383.31;;;11.59;100.00
18918;BME280;9591;52.742;13.650;2023-05-06T10:01:15;101379.28;;;11.79;100.00
18918;BME280;9591;52.742;13.650;2023-05-06T10:04:20;101368.66;;;11.79;100.00
18918;BME280;9591;52.742;13.650;2023-05-06T10:07:13;101374.53;;;11.57;100.00
18918;BME280;9591;52.742;13.650;2023-05-06T10:10:01;101376.50;;;11.48;100.00
18918;BME280;9591;52.742;13.650;2023-05-06T10:12:48;101378.03;;;11.25;100.00
18918;BME280;9591;52.742;13.650;2023-05-06T10:15:36;101373.22;;;11.39;100.00
18918;BME280;9591;52.742;13.650;2023-05-06T10:18:25;101358.44;;;10.95;100.00
18918;BME280;9591;52.742;13.650;2023-05-06T10:21:15;101396.63;;;11.23;100.00
18918;BME280;9591;52.742;13.650;2023-05-06T10:24:10;101387.25;;;11.08;100.00
18918;BME280;9591;52.742;13.650;2023-05-06T10:27:00;101394.31;;;11.43;100.00
18918;BME280;9591;52.742;13.650;2023-05-06T10:29:50;101394.38;;;11.06;100.00
18918;BME280;9591;52.742;13.650;2023-05-06T10:32:41;101391.31;;;11.23;100.00
18918;BME280;9591;52.742;13.650;2023-05-06T10:35:37;101388.03;;;11.13;100.00
18918;BME280;9591;52.742;13.650;2023-05-06T10:38:30;101403.97;;;11.12;100.00
18918;BME280;9591;52.742;13.650;2023-05-06T10:41:20;101410.72;;;11.25;100.00
18918;BME280;9591;52.742;13.650;2023-05-06T10:44:07;101414.41;;;11.20;100.00
18918;BME280;9591;52.742;13.650;2023-05-06T10:46:58;101426.41;;;11.33;100.00
18918;BME280;9591;52.742;13.650;2023-05-06T10:50:20;101426.63;;;11.25;100.00
18918;BME280;9591;52.742;13.650;2023-05-06T10:53:06;101418.75;;;11.22;100.00
18918;BME280;9591;52.742;13.650;2023-05-06T10:56:05;101425.94;;;10.78;100.00
18918;BME280;9591;52.742;13.650;2023-05-06T10:58:53;101420.22;;;10.97;100.00
18918;BME280;9591;52.742;13.650;2023-05-06T11:01:41;101430.44;;;10.75;100.00
18918;BME280;9591;52.742;13.650;2023-05-06T11:04:28;101434.63;;;10.85;100.00
18918;BME280;9591;52.742;13.650;2023-05-06T11:07:21;101427.34;;;10.55;100.00
18918;BME280;9591;52.742;13.650;2023-05-06T11:10:09;101433.88;;;10.78;100.00
18918;BME280;9591;52.742;13.650;2023-05-06T11:12:56;101431.94;;;10.87;100.00
18918;BME280;9591;52.742;13.650;2023-05-06T11:15:45;101424.97;;;10.82;100.00
18918;BME280;9591;52.742;13.650;2023-05-06T11:18:41;101422.97;;;10.92;100.00
18918;BME280;9591;52.742;13.650;2023-05-06T11:21:38;101426.53;;;10.91;100.00
18918;BME280;9591;52.742;13.650;2023-05-06T11:24:28;101429.94;;;10.98;100.00
18918;BME280;9591;52.742;13.650;2023-05-06T11:27:16;101440.56;;;10.96;100.00
18918;BME280;9591;52.742;13.650;2023-05-06T11:30:05;101440.16;;;10.74;100.00
18918;BME280;9591;52.742;13.650;2023-05-06T11:32:52;101444.06;;;10.57;100.00
18918;BME280;9591;52.742;13.650;2023-05-06T11:35:41;101446.06;;;10.87;100.00
18918;BME280;9591;52.742;13.650;2023-05-06T11:38:40;101442.72;;;11.18;100.00
18918;BME280;9591;52.742;13.650;2023-05-06T11:41:27;101446.63;;;11.01;100.00
18918;BME280;9591;52.742;13.650;2023-05-06T11:44:24;101438.91;;;11.28;100.00
18918;BME280;9591;52.742;13.650;2023-05-06T11:47:11;101446.47;;;10.69;100.00
18918;BME280;9591;52.742;13.650;2023-05-06T11:49:58;101441.59;;;10.89;100.00
18918;BME280;9591;52.742;13.650;2023-05-06T11:52:50;101452.25;;;10.88;100.00
18918;BME280;9591;52.742;13.650;2023-05-06T11:55:38;101407.22;;;10.86;100.00
18918;BME280;9591;52.742;13.650;2023-05-06T11:58:27;101452.50;;;11.15;100.00
18918;BME280;9591;52.742;13.650;2023-05-06T12:01:14;101463.09;;;11.15;100.00
18918;BME280;9591;52.742;13.650;2023-05-06T12:04:01;101473.88;;;10.66;100.00
18918;BME280;9591;52.742;13.650;2023-05-06T12:06:48;101464.28;;;11.02;100.00
18918;BME280;9591;52.742;13.650;2023-05-06T12:09:35;101463.81;;;11.22;100.00
18918;BME280;9591;52.742;13.650;2023-05-06T12:12:23;101466.78;;;10.68;100.00
18918;BME280;9591;52.742;13.650;2023-05-06T12:15:12;101465.66;;;11.20;100.00
18918;BME280;9591;52.742;13.650;2023-05-06T12:17:59;101474.38;;;11.25;100.00
18918;BME280;9591;52.742;13.650;2023-05-06T12:20:46;101478.00;;;11.57;100.00
18918;BME280;9591;52.742;13.650;2023-05-06T12:23:33;101489.34;;;11.63;100.00
18918;BME280;9591;52.742;13.650;2023-05-06T12:26:20;101486.91;;;11.54;100.00
18918;BME280;9591;52.742;13.650;2023-05-06T12:29:08;101489.22;;;11.31;100.00
18918;BME280;9591;52.742;13.650;2023-05-06T12:32:07;101496.53;;;11.23;100.00
18918;BME280;9591;52.742;13.650;2023-05-06T12:34:55;101490.66;;;11.08;100.00
18918;BME280;9591;52.742;13.650;2023-05-06T12:37:42;101490.41;;;11.19;100.00
18918;BME280;9591;52.742;13.650;2023-05-06T12:40:29;101492.72;;;11.33;100.00
18918;BME280;9591;52.742;13.650;2023-05-06T12:43:16;101499.56;;;11.43;100.00
18918;BME280;9591;52.742;13.650;2023-05-06T12:46:05;101493.69;;;10.90;100.00
18918;BME280;9591;52.742;13.650;2023-05-06T12:48:57;101497.94;;;11.36;100.00
18918;BME280;9591;52.742;13.650;2023-05-06T12:51:44;101497.84;;;11.40;100.00
18918;BME280;9591;52.742;13.650;2023-05-06T12:54:32;101507.41;;;11.47;100.00
18918;BME280;9591;52.742;13.650;2023-05-06T12:57:19;101508.16;;;11.53;100.00
18918;BME280;9591;52.742;13.650;2023-05-06T13:00:07;101504.63;;;11.52;100.00
18918;BME280;9591;52.742;13.650;2023-05-06T13:02:55;101509.28;;;11.42;100.00
18918;BME280;9591;52.742;13.650;2023-05-06T13:05:43;101506.78;;;11.73;100.00
18918;BME280;9591;52.742;13.650;2023-05-06T13:08:30;101510.75;;;11.93;100.00
18918;BME280;9591;52.742;13.650;2023-05-06T13:11:18;101528.81;;;11.78;100.00
18918;BME280;9591;52.742;13.650;2023-05-06T13:14:06;101517.16;;;11.84;100.00
18918;BME280;9591;52.742;13.650;2023-05-06T13:16:53;101532.00;;;11.54;100.00
18918;BME280;9591;52.742;13.650;2023-05-06T13:19:40;101530.22;;;11.18;100.00
18918;BME280;9591;52.742;13.650;2023-05-06T13:22:28;101532.25;;;11.43;100.00
18918;BME280;9591;52.742;13.650;2023-05-06T13:25:21;101540.16;;;11.46;100.00
18918;BME280;9591;52.742;13.650;2023-05-06T13:28:08;101535.09;;;11.36;100.00
18918;BME280;9591;52.742;13.650;2023-05-06T13:30:55;101526.03;;;11.44;100.00
18918;BME280;9591;52.742;13.650;2023-05-06T13:33:41;101525.00;;;11.52;100.00
18918;BME280;9591;52.742;13.650;2023-05-06T13:36:28;101533.13;;;11.44;100.00
18918;BME280;9591;52.742;13.650;2023-05-06T13:39:16;101534.00;;;11.44;100.00
18918;BME280;9591;52.742;13.650;2023-05-06T13:42:04;101528.28;;;11.26;100.00
18918;BME280;9591;52.742;13.650;2023-05-06T13:44:53;101532.22;;;11.45;100.00
18918;BME280;9591;52.742;13.650;2023-05-06T13:47:39;101543.81;;;11.41;100.00
18918;BME280;9591;52.742;13.650;2023-05-06T13:50:27;101549.19;;;11.38;100.00
18918;BME280;9591;52.742;13.650;2023-05-06T13:53:14;101530.28;;;11.14;100.00
18918;BME280;9591;52.742;13.650;2023-05-06T13:56:03;101543.66;;;11.47;100.00
18918;BME280;9591;52.742;13.650;2023-05-06T13:58:50;101541.94;;;11.46;100.00
18918;BME280;9591;52.742;13.650;2023-05-06T14:01:37;101538.50;;;11.41;100.00
18918;BME280;9591;52.742;13.650;2023-05-06T14:04:24;101532.25;;;11.43;100.00
18918;BME280;9591;52.742;13.650;2023-05-06T14:07:11;101530.47;;;11.44;100.00
18918;BME280;9591;52.742;13.650;2023-05-06T14:09:58;101539.13;;;11.52;100.00
18918;BME280;9591;52.742;13.650;2023-05-06T14:12:47;101496.72;;;11.13;100.00
18918;BME280;9591;52.742;13.650;2023-05-06T14:15:33;101530.69;;;11.35;100.00
18918;BME280;9591;52.742;13.650;2023-05-06T14:18:20;101543.66;;;11.47;100.00
18918;BME280;9591;52.742;13.650;2023-05-06T14:21:10;101535.09;;;11.36;100.00
18918;BME280;9591;52.742;13.650;2023-05-06T14:23:57;101536.06;;;11.32;100.00
18918;BME280;9591;52.742;13.650;2023-05-06T14:26:44;101536.00;;;11.35;100.00
18918;BME280;9591;52.742;13.650;2023-05-06T14:29:32;101548.91;;;11.50;100.00
18918;BME280;9591;52.742;13.650;2023-05-06T14:32:19;101548.47;;;11.30;100.00